sensor_id;sensor_type;location;lat;lon;timestamp;P1;durP1;ratioP1;P2;durP2;ratioP2
10641;SDS011;5369;49.586;8.646;2022-09-13T00:01:55;5.37;;;4.70;;
10641;SDS011;5369;49.586;8.646;2022-09-13T00:04:21;4.77;;;4.23;;
10641;SDS011;5369;49.586;8.646;2022-09-13T00:06:47;5.23;;;4.73;;
10641;SDS011;5369;49.586;8.646;2022-09-13T00:09:13;5.10;;;4.60;;
10641;SDS011;5369;49.586;8.646;2022-09-13T00:11:39;7.07;;;4.60;;
10641;SDS011;5369;49.586;8.646;2022-09-13T00:14:05;6.60;;;4.80;;
10641;SDS011;5369;49.586;8.646;2022-09-13T00:16:31;4.63;;;4.00;;
10641;SDS011;5369;49.586;8.646;2022-09-13T00:18:58;5.17;;;4.43;;
10641;SDS011;5369;49.586;8.646;2022-09-13T00:21:24;5.00;;;4.50;;
10641;SDS011;5369;49.586;8.646;2022-09-13T00:23:52;5.30;;;4.23;;
10641;SDS011;5369;49.586;8.646;2022-09-13T00:26:20;4.40;;;4.00;;
10641;SDS011;5369;49.586;8.646;2022-09-13T00:28:48;4.97;;;3.73;;
10641;SDS011;5369;49.586;8.646;2022-09-13T00:31:15;4.60;;;4.10;;
10641;SDS011;5369;49.586;8.646;2022-09-13T00:33:41;4.93;;;4.37;;
10641;SDS011;5369;49.586;8.646;2022-09-13T00:36:09;5.27;;;4.40;;
10641;SDS011;5369;49.586;8.646;2022-09-13T00:38:35;5.70;;;4.30;;
10641;SDS011;5369;49.586;8.646;2022-09-13T00:41:06;5.90;;;4.70;;
10641;SDS011;5369;49.586;8.646;2022-09-13T00:43:50;5.10;;;4.70;;
10641;SDS011;5369;49.586;8.646;2022-09-13T00:51:37;5.90;;;4.30;;
10641;SDS011;5369;49.586;8.646;2022-09-13T00:54:04;4.57;;;4.17;;
10641;SDS011;5369;49.586;8.646;2022-09-13T00:56:35;5.90;;;4.27;;
10641;SDS011;5369;49.586;8.646;2022-09-13T00:59:05;4.77;;;4.33;;
10641;SDS011;5369;49.586;8.646;2022-09-13T01:01:34;4.93;;;4.53;;
10641;SDS011;5369;49.586;8.646;2022-09-13T01:04:02;5.03;;;4.53;;
10641;SDS011;5369;49.586;8.646;2022-09-13T01:06:29;8.63;;;4.80;;
10641;SDS011;5369;49.586;8.646;2022-09-13T01:08:57;5.73;;;4.97;;
10641;SDS011;5369;49.586;8.646;2022-09-13T01:14:09;5.93;;;4.73;;
10641;SDS011;5369;49.586;8.646;2022-09-13T01:16:36;6.07;;;4.80;;
10641;SDS011;5369;49.586;8.646;2022-09-13T01:19:03;4.33;;;4.00;;
10641;SDS011;5369;49.586;8.646;2022-09-13T01:31:45;4.83;;;4.20;;
10641;SDS011;5369;49.586;8.646;2022-09-13T01:34:23;4.83;;;4.33;;
10641;SDS011;5369;49.586;8.646;2022-09-13T01:37:15;6.23;;;5.37;;
10641;SDS011;5369;49.586;8.646;2022-09-13T01:40:02;6.60;;;5.03;;
10641;SDS011;5369;49.586;8.646;2022-09-13T01:43:03;6.53;;;4.63;;
10641;SDS011;5369;49.586;8.646;2022-09-13T01:45:42;5.77;;;4.73;;
10641;SDS011;5369;49.586;8.646;2022-09-13T01:50:39;6.47;;;4.90;;
10641;SDS011;5369;49.586;8.646;2022-09-13T01:53:17;5.00;;;4.50;;
10641;SDS011;5369;49.586;8.646;2022-09-13T02:01:29;5.23;;;4.73;;
10641;SDS011;5369;49.586;8.646;2022-09-13T02:04:07;5.53;;;5.03;;
10641;SDS011;5369;49.586;8.646;2022-09-13T02:06:49;5.70;;;4.43;;
10641;SDS011;5369;49.586;8.646;2022-09-13T02:09:18;6.27;;;4.70;;
10641;SDS011;5369;49.586;8.646;2022-09-13T02:11:47;6.17;;;4.90;;
10641;SDS011;5369;49.586;8.646;2022-09-13T02:14:18;7.53;;;5.07;;
10641;SDS011;5369;49.586;8.646;2022-09-13T02:19:37;6.80;;;5.20;;
10641;SDS011;5369;49.586;8.646;2022-09-13T02:22:01;5.93;;;5.33;;
10641;SDS011;5369;49.586;8.646;2022-09-13T02:24:28;6.07;;;5.13;;
10641;SDS011;5369;49.586;8.646;2022-09-13T02:26:55;8.03;;;5.70;;
10641;SDS011;5369;49.586;8.646;2022-09-13T02:29:23;6.67;;;5.30;;
10641;SDS011;5369;49.586;8.646;2022-09-13T02:32:05;6.17;;;4.40;;
10641;SDS011;5369;49.586;8.646;2022-09-13T02:34:38;6.53;;;5.93;;
10641;SDS011;5369;49.586;8.646;2022-09-13T02:37:06;6.03;;;5.40;;
10641;SDS011;5369;49.586;8.646;2022-09-13T02:39:33;7.33;;;5.50;;
10641;SDS011;5369;49.586;8.646;2022-09-13T02:42:09;6.00;;;5.40;;
10641;SDS011;5369;49.586;8.646;2022-09-13T02:44:39;6.50;;;5.77;;
10641;SDS011;5369;49.586;8.646;2022-09-13T02:55:27;5.47;;;4.80;;
10641;SDS011;5369;49.586;8.646;2022-09-13T03:00:21;6.80;;;4.77;;
10641;SDS011;5369;49.586;8.646;2022-09-13T03:02:48;5.77;;;4.70;;
10641;SDS011;5369;49.586;8.646;2022-09-13T03:05:15;7.17;;;4.80;;
10641;SDS011;5369;49.586;8.646;2022-09-13T03:07:42;6.10;;;4.90;;
10641;SDS011;5369;49.586;8.646;2022-09-13T03:10:08;5.37;;;4.87;;
10641;SDS011;5369;49.586;8.646;2022-09-13T03:15:51;5.50;;;4.77;;
10641;SDS011;5369;49.586;8.646;2022-09-13T03:18:25;5.17;;;4.27;;
10641;SDS011;5369;49.586;8.646;2022-09-13T03:23:33;6.13;;;5.50;;
10641;SDS011;5369;49.586;8.646;2022-09-13T03:26:05;6.47;;;5.03;;
10641;SDS011;5369;49.586;8.646;2022-09-13T03:28:45;5.70;;;4.73;;
10641;SDS011;5369;49.586;8.646;2022-09-13T03:31:26;4.90;;;4.40;;
10641;SDS011;5369;49.586;8.646;2022-09-13T03:36:32;4.80;;;4.30;;
10641;SDS011;5369;49.586;8.646;2022-09-13T03:39:22;4.70;;;4.30;;
10641;SDS011;5369;49.586;8.646;2022-09-13T03:41:52;4.83;;;3.87;;
10641;SDS011;5369;49.586;8.646;2022-09-13T03:44:21;3.97;;;3.67;;
10641;SDS011;5369;49.586;8.646;2022-09-13T03:46:50;5.07;;;4.03;;
10641;SDS011;5369;49.586;8.646;2022-09-13T03:49:18;7.97;;;5.30;;
10641;SDS011;5369;49.586;8.646;2022-09-13T03:51:46;5.90;;;5.37;;
10641;SDS011;5369;49.586;8.646;2022-09-13T03:54:19;5.90;;;5.30;;
10641;SDS011;5369;49.586;8.646;2022-09-13T03:59:32;5.50;;;5.00;;
10641;SDS011;5369;49.586;8.646;2022-09-13T04:02:01;6.97;;;5.10;;
10641;SDS011;5369;49.586;8.646;2022-09-13T04:04:27;6.90;;;4.80;;
10641;SDS011;5369;49.586;8.646;2022-09-13T04:06:53;5.10;;;4.70;;
10641;SDS011;5369;49.586;8.646;2022-09-13T04:09:21;6.10;;;5.10;;
10641;SDS011;5369;49.586;8.646;2022-09-13T04:11:47;6.57;;;5.50;;
10641;SDS011;5369;49.586;8.646;2022-09-13T04:14:14;5.93;;;5.30;;
10641;SDS011;5369;49.586;8.646;2022-09-13T04:16:40;5.10;;;4.67;;
10641;SDS011;5369;49.586;8.646;2022-09-13T04:19:06;5.47;;;4.97;;
10641;SDS011;5369;49.586;8.646;2022-09-13T04:21:32;6.10;;;5.50;;
10641;SDS011;5369;49.586;8.646;2022-09-13T04:23:59;5.60;;;5.00;;
10641;SDS011;5369;49.586;8.646;2022-09-13T04:26:25;5.30;;;4.53;;
10641;SDS011;5369;49.586;8.646;2022-09-13T04:28:52;7.50;;;5.07;;
10641;SDS011;5369;49.586;8.646;2022-09-13T04:31:18;5.30;;;4.70;;
10641;SDS011;5369;49.586;8.646;2022-09-13T04:33:44;4.60;;;4.20;;
10641;SDS011;5369;49.586;8.646;2022-09-13T04:36:10;5.07;;;4.43;;
10641;SDS011;5369;49.586;8.646;2022-09-13T04:38:37;5.50;;;5.00;;
10641;SDS011;5369;49.586;8.646;2022-09-13T04:41:03;5.30;;;4.80;;
10641;SDS011;5369;49.586;8.646;2022-09-13T04:43:29;6.03;;;4.17;;
10641;SDS011;5369;49.586;8.646;2022-09-13T04:45:58;5.88;;;5.28;;
10641;SDS011;5369;49.586;8.646;2022-09-13T04:48:25;6.18;;;5.05;;
10641;SDS011;5369;49.586;8.646;2022-09-13T04:50:51;5.80;;;4.70;;
10641;SDS011;5369;49.586;8.646;2022-09-13T04:53:17;7.00;;;4.97;;
10641;SDS011;5369;49.586;8.646;2022-09-13T04:55:43;6.23;;;4.90;;
10641;SDS011;5369;49.586;8.646;2022-09-13T04:58:09;5.20;;;4.70;;
10641;SDS011;5369;49.586;8.646;2022-09-13T05:00:36;5.83;;;4.80;;
10641;SDS011;5369;49.586;8.646;2022-09-13T05:03:02;5.70;;;5.03;;
10641;SDS011;5369;49.586;8.646;2022-09-13T05:05:28;5.73;;;5.00;;
10641;SDS011;5369;49.586;8.646;2022-09-13T05:07:56;5.33;;;4.50;;
10641;SDS011;5369;49.586;8.646;2022-09-13T05:10:22;7.13;;;4.90;;
10641;SDS011;5369;49.586;8.646;2022-09-13T05:12:48;6.23;;;4.73;;
10641;SDS011;5369;49.586;8.646;2022-09-13T05:15:15;5.87;;;4.77;;
10641;SDS011;5369;49.586;8.646;2022-09-13T05:17:41;5.77;;;5.17;;
10641;SDS011;5369;49.586;8.646;2022-09-13T05:20:07;4.77;;;4.37;;
10641;SDS011;5369;49.586;8.646;2022-09-13T05:22:33;5.57;;;4.97;;
10641;SDS011;5369;49.586;8.646;2022-09-13T05:24:59;5.50;;;4.93;;
10641;SDS011;5369;49.586;8.646;2022-09-13T05:27:26;4.97;;;4.47;;
10641;SDS011;5369;49.586;8.646;2022-09-13T05:29:52;5.37;;;4.70;;
10641;SDS011;5369;49.586;8.646;2022-09-13T05:32:18;5.87;;;4.63;;
10641;SDS011;5369;49.586;8.646;2022-09-13T05:34:44;7.03;;;4.83;;
10641;SDS011;5369;49.586;8.646;2022-09-13T05:37:12;5.73;;;4.70;;
10641;SDS011;5369;49.586;8.646;2022-09-13T05:39:38;6.50;;;4.90;;
10641;SDS011;5369;49.586;8.646;2022-09-13T05:42:04;6.33;;;5.33;;
10641;SDS011;5369;49.586;8.646;2022-09-13T05:44:30;5.63;;;5.10;;
10641;SDS011;5369;49.586;8.646;2022-09-13T05:46:56;6.57;;;5.10;;
10641;SDS011;5369;49.586;8.646;2022-09-13T05:49:23;4.93;;;4.43;;
10641;SDS011;5369;49.586;8.646;2022-09-13T05:51:49;6.33;;;5.00;;
10641;SDS011;5369;49.586;8.646;2022-09-13T05:54:15;5.97;;;4.90;;
10641;SDS011;5369;49.586;8.646;2022-09-13T05:56:41;5.30;;;4.60;;
10641;SDS011;5369;49.586;8.646;2022-09-13T05:59:10;5.50;;;4.67;;
10641;SDS011;5369;49.586;8.646;2022-09-13T06:01:36;7.87;;;4.67;;
10641;SDS011;5369;49.586;8.646;2022-09-13T06:04:03;8.50;;;5.10;;
10641;SDS011;5369;49.586;8.646;2022-09-13T06:06:29;6.67;;;4.67;;
10641;SDS011;5369;49.586;8.646;2022-09-13T06:08:55;7.50;;;4.97;;
10641;SDS011;5369;49.586;8.646;2022-09-13T06:11:22;7.27;;;5.73;;
10641;SDS011;5369;49.586;8.646;2022-09-13T06:13:49;5.13;;;4.63;;
10641;SDS011;5369;49.586;8.646;2022-09-13T06:16:16;7.27;;;5.00;;
10641;SDS011;5369;49.586;8.646;2022-09-13T06:18:42;5.77;;;4.57;;
10641;SDS011;5369;49.586;8.646;2022-09-13T06:21:09;7.17;;;4.63;;
10641;SDS011;5369;49.586;8.646;2022-09-13T06:23:37;6.03;;;5.00;;
10641;SDS011;5369;49.586;8.646;2022-09-13T06:26:08;6.50;;;5.43;;
10641;SDS011;5369;49.586;8.646;2022-09-13T06:28:35;5.80;;;4.67;;
10641;SDS011;5369;49.586;8.646;2022-09-13T06:31:02;6.73;;;5.10;;
10641;SDS011;5369;49.586;8.646;2022-09-13T06:33:30;6.37;;;4.50;;
10641;SDS011;5369;49.586;8.646;2022-09-13T06:36:02;5.20;;;4.60;;
10641;SDS011;5369;49.586;8.646;2022-09-13T06:38:28;5.70;;;4.70;;
10641;SDS011;5369;49.586;8.646;2022-09-13T06:41:02;6.60;;;4.30;;
10641;SDS011;5369;49.586;8.646;2022-09-13T06:43:28;5.60;;;4.70;;
10641;SDS011;5369;49.586;8.646;2022-09-13T06:45:58;6.50;;;4.53;;
10641;SDS011;5369;49.586;8.646;2022-09-13T06:48:24;7.60;;;5.50;;
10641;SDS011;5369;49.586;8.646;2022-09-13T06:50:50;6.30;;;4.90;;
10641;SDS011;5369;49.586;8.646;2022-09-13T06:53:16;6.80;;;4.93;;
10641;SDS011;5369;49.586;8.646;2022-09-13T06:55:42;8.00;;;4.83;;
10641;SDS011;5369;49.586;8.646;2022-09-13T06:58:08;5.70;;;5.10;;
10641;SDS011;5369;49.586;8.646;2022-09-13T07:00:35;7.03;;;4.80;;
10641;SDS011;5369;49.586;8.646;2022-09-13T07:03:01;7.00;;;5.20;;
10641;SDS011;5369;49.586;8.646;2022-09-13T07:05:27;7.73;;;5.40;;
10641;SDS011;5369;49.586;8.646;2022-09-13T07:07:53;5.70;;;5.20;;
10641;SDS011;5369;49.586;8.646;2022-09-13T07:10:20;6.90;;;5.30;;
10641;SDS011;5369;49.586;8.646;2022-09-13T07:12:46;6.40;;;5.27;;
10641;SDS011;5369;49.586;8.646;2022-09-13T07:15:12;8.27;;;5.47;;
10641;SDS011;5369;49.586;8.646;2022-09-13T07:17:39;5.67;;;5.07;;
10641;SDS011;5369;49.586;8.646;2022-09-13T07:20:05;7.23;;;5.80;;
10641;SDS011;5369;49.586;8.646;2022-09-13T07:22:32;6.20;;;4.90;;
10641;SDS011;5369;49.586;8.646;2022-09-13T07:24:58;6.53;;;5.50;;
10641;SDS011;5369;49.586;8.646;2022-09-13T07:27:25;7.00;;;5.30;;
10641;SDS011;5369;49.586;8.646;2022-09-13T07:29:51;6.67;;;5.97;;
10641;SDS011;5369;49.586;8.646;2022-09-13T07:32:18;6.57;;;5.97;;
10641;SDS011;5369;49.586;8.646;2022-09-13T07:34:44;9.27;;;6.00;;
10641;SDS011;5369;49.586;8.646;2022-09-13T07:37:10;7.80;;;6.30;;
10641;SDS011;5369;49.586;8.646;2022-09-13T07:39:36;6.67;;;5.83;;
10641;SDS011;5369;49.586;8.646;2022-09-13T07:42:02;7.40;;;5.97;;
10641;SDS011;5369;49.586;8.646;2022-09-13T07:44:28;6.93;;;6.20;;
10641;SDS011;5369;49.586;8.646;2022-09-13T07:46:55;6.50;;;5.73;;
10641;SDS011;5369;49.586;8.646;2022-09-13T07:49:21;7.93;;;6.30;;
10641;SDS011;5369;49.586;8.646;2022-09-13T07:51:47;8.73;;;6.17;;
10641;SDS011;5369;49.586;8.646;2022-09-13T07:54:16;7.97;;;5.80;;
10641;SDS011;5369;49.586;8.646;2022-09-13T07:56:42;6.73;;;5.47;;
10641;SDS011;5369;49.586;8.646;2022-09-13T07:59:10;6.97;;;5.57;;
10641;SDS011;5369;49.586;8.646;2022-09-13T08:01:40;6.60;;;5.83;;
10641;SDS011;5369;49.586;8.646;2022-09-13T08:04:07;5.97;;;5.37;;
10641;SDS011;5369;49.586;8.646;2022-09-13T08:06:35;7.93;;;5.50;;
10641;SDS011;5369;49.586;8.646;2022-09-13T08:09:01;7.53;;;5.50;;
10641;SDS011;5369;49.586;8.646;2022-09-13T08:11:32;7.30;;;5.50;;
10641;SDS011;5369;49.586;8.646;2022-09-13T08:13:59;10.03;;;6.30;;
10641;SDS011;5369;49.586;8.646;2022-09-13T08:16:26;7.77;;;5.90;;
10641;SDS011;5369;49.586;8.646;2022-09-13T08:18:53;6.37;;;5.77;;
10641;SDS011;5369;49.586;8.646;2022-09-13T08:21:20;5.77;;;4.93;;
10641;SDS011;5369;49.586;8.646;2022-09-13T08:23:46;7.97;;;6.25;;
10641;SDS011;5369;49.586;8.646;2022-09-13T08:26:13;7.40;;;5.90;;
10641;SDS011;5369;49.586;8.646;2022-09-13T08:28:40;6.17;;;5.37;;
10641;SDS011;5369;49.586;8.646;2022-09-13T08:31:08;6.20;;;5.37;;
10641;SDS011;5369;49.586;8.646;2022-09-13T08:33:34;7.90;;;5.70;;
10641;SDS011;5369;49.586;8.646;2022-09-13T08:36:02;6.00;;;5.40;;
10641;SDS011;5369;49.586;8.646;2022-09-13T08:38:28;6.50;;;5.80;;
10641;SDS011;5369;49.586;8.646;2022-09-13T08:40:57;6.63;;;5.70;;
10641;SDS011;5369;49.586;8.646;2022-09-13T08:43:27;11.07;;;8.03;;
10641;SDS011;5369;49.586;8.646;2022-09-13T08:46:07;11.63;;;9.23;;
10641;SDS011;5369;49.586;8.646;2022-09-13T08:48:35;18.07;;;12.13;;
10641;SDS011;5369;49.586;8.646;2022-09-13T08:51:03;12.37;;;9.53;;
10641;SDS011;5369;49.586;8.646;2022-09-13T08:53:30;8.67;;;7.23;;
10641;SDS011;5369;49.586;8.646;2022-09-13T09:06:26;9.10;;;6.60;;
10641;SDS011;5369;49.586;8.646;2022-09-13T09:09:15;6.90;;;5.93;;
10641;SDS011;5369;49.586;8.646;2022-09-13T09:11:50;6.10;;;5.50;;
10641;SDS011;5369;49.586;8.646;2022-09-13T09:16:46;8.33;;;5.70;;
10641;SDS011;5369;49.586;8.646;2022-09-13T09:21:39;9.60;;;5.73;;
10641;SDS011;5369;49.586;8.646;2022-09-13T09:24:08;6.57;;;5.83;;
10641;SDS011;5369;49.586;8.646;2022-09-13T09:26:36;5.90;;;5.30;;
10641;SDS011;5369;49.586;8.646;2022-09-13T09:31:53;7.57;;;5.03;;
10641;SDS011;5369;49.586;8.646;2022-09-13T09:36:55;7.33;;;5.00;;
10641;SDS011;5369;49.586;8.646;2022-09-13T09:39:23;5.80;;;5.20;;
10641;SDS011;5369;49.586;8.646;2022-09-13T09:41:52;6.63;;;5.17;;
10641;SDS011;5369;49.586;8.646;2022-09-13T09:44:23;5.83;;;4.67;;
10641;SDS011;5369;49.586;8.646;2022-09-13T09:47:11;5.57;;;4.50;;
10641;SDS011;5369;49.586;8.646;2022-09-13T09:49:40;7.33;;;4.90;;
10641;SDS011;5369;49.586;8.646;2022-09-13T09:52:35;6.53;;;5.37;;
10641;SDS011;5369;49.586;8.646;2022-09-13T09:57:53;6.73;;;4.73;;
10641;SDS011;5369;49.586;8.646;2022-09-13T10:00:21;8.67;;;5.60;;
10641;SDS011;5369;49.586;8.646;2022-09-13T10:02:48;9.40;;;6.23;;
10641;SDS011;5369;49.586;8.646;2022-09-13T10:05:19;7.63;;;5.57;;
10641;SDS011;5369;49.586;8.646;2022-09-13T10:08:02;6.43;;;5.57;;
10641;SDS011;5369;49.586;8.646;2022-09-13T10:13:02;11.83;;;5.47;;
10641;SDS011;5369;49.586;8.646;2022-09-13T10:15:30;6.33;;;5.30;;
10641;SDS011;5369;49.586;8.646;2022-09-13T10:18:00;8.10;;;6.37;;
10641;SDS011;5369;49.586;8.646;2022-09-13T10:20:27;6.57;;;5.97;;
10641;SDS011;5369;49.586;8.646;2022-09-13T10:25:36;5.70;;;5.10;;
10641;SDS011;5369;49.586;8.646;2022-09-13T10:28:03;8.07;;;5.93;;
10641;SDS011;5369;49.586;8.646;2022-09-13T10:33:02;5.53;;;4.90;;
10641;SDS011;5369;49.586;8.646;2022-09-13T10:35:29;8.60;;;5.60;;
10641;SDS011;5369;49.586;8.646;2022-09-13T10:37:55;5.83;;;5.20;;
10641;SDS011;5369;49.586;8.646;2022-09-13T10:40:28;7.03;;;6.00;;
10641;SDS011;5369;49.586;8.646;2022-09-13T10:42:58;7.37;;;4.80;;
10641;SDS011;5369;49.586;8.646;2022-09-13T10:45:26;6.60;;;5.40;;
10641;SDS011;5369;49.586;8.646;2022-09-13T10:47:54;6.47;;;5.77;;
10641;SDS011;5369;49.586;8.646;2022-09-13T10:50:28;6.63;;;5.60;;
10641;SDS011;5369;49.586;8.646;2022-09-13T10:53:00;11.03;;;5.83;;
10641;SDS011;5369;49.586;8.646;2022-09-13T10:55:31;6.10;;;5.50;;
10641;SDS011;5369;49.586;8.646;2022-09-13T11:00:37;6.00;;;4.77;;
10641;SDS011;5369;49.586;8.646;2022-09-13T11:05:31;5.30;;;4.80;;
10641;SDS011;5369;49.586;8.646;2022-09-13T11:13:04;5.13;;;4.40;;
10641;SDS011;5369;49.586;8.646;2022-09-13T11:18:28;11.63;;;5.13;;
10641;SDS011;5369;49.586;8.646;2022-09-13T11:21:31;5.00;;;4.23;;
10641;SDS011;5369;49.586;8.646;2022-09-13T11:28:59;6.20;;;4.23;;
10641;SDS011;5369;49.586;8.646;2022-09-13T11:31:37;6.53;;;4.37;;
10641;SDS011;5369;49.586;8.646;2022-09-13T11:39:08;6.50;;;4.47;;
10641;SDS011;5369;49.586;8.646;2022-09-13T11:57:14;5.57;;;5.03;;
10641;SDS011;5369;49.586;8.646;2022-09-13T11:59:44;5.47;;;4.97;;
10641;SDS011;5369;49.586;8.646;2022-09-13T12:02:15;5.93;;;5.07;;
10641;SDS011;5369;49.586;8.646;2022-09-13T12:04:49;7.53;;;4.67;;
10641;SDS011;5369;49.586;8.646;2022-09-13T12:07:50;5.77;;;4.30;;
10641;SDS011;5369;49.586;8.646;2022-09-13T12:10:31;7.80;;;5.47;;
10641;SDS011;5369;49.586;8.646;2022-09-13T12:12:55;6.80;;;4.90;;
10641;SDS011;5369;49.586;8.646;2022-09-13T12:17:53;5.70;;;4.83;;
10641;SDS011;5369;49.586;8.646;2022-09-13T12:20:34;5.30;;;4.80;;
10641;SDS011;5369;49.586;8.646;2022-09-13T12:23:03;7.10;;;4.40;;
10641;SDS011;5369;49.586;8.646;2022-09-13T12:25:36;5.43;;;4.70;;
10641;SDS011;5369;49.586;8.646;2022-09-13T12:30:47;6.37;;;5.40;;
10641;SDS011;5369;49.586;8.646;2022-09-13T12:33:16;5.57;;;4.97;;
10641;SDS011;5369;49.586;8.646;2022-09-13T12:35:50;6.10;;;3.97;;
10641;SDS011;5369;49.586;8.646;2022-09-13T12:38:28;4.80;;;4.23;;
10641;SDS011;5369;49.586;8.646;2022-09-13T12:41:01;6.73;;;4.40;;
10641;SDS011;5369;49.586;8.646;2022-09-13T12:43:35;4.47;;;4.03;;
10641;SDS011;5369;49.586;8.646;2022-09-13T12:51:39;4.30;;;3.90;;
10641;SDS011;5369;49.586;8.646;2022-09-13T12:54:23;4.87;;;4.07;;
10641;SDS011;5369;49.586;8.646;2022-09-13T13:02:20;4.43;;;4.03;;
10641;SDS011;5369;49.586;8.646;2022-09-13T13:04:49;4.50;;;3.70;;
10641;SDS011;5369;49.586;8.646;2022-09-13T13:07:19;3.90;;;3.53;;
10641;SDS011;5369;49.586;8.646;2022-09-13T13:09:47;4.20;;;3.70;;
10641;SDS011;5369;49.586;8.646;2022-09-13T13:12:57;5.17;;;3.73;;
10641;SDS011;5369;49.586;8.646;2022-09-13T13:22:50;7.07;;;4.50;;
10641;SDS011;5369;49.586;8.646;2022-09-13T13:25:35;4.77;;;3.97;;
10641;SDS011;5369;49.586;8.646;2022-09-13T13:28:47;6.67;;;4.27;;
10641;SDS011;5369;49.586;8.646;2022-09-13T13:30:55;4.33;;;3.43;;
10641;SDS011;5369;49.586;8.646;2022-09-13T13:33:23;4.23;;;3.50;;
10641;SDS011;5369;49.586;8.646;2022-09-13T13:35:50;3.90;;;3.60;;
10641;SDS011;5369;49.586;8.646;2022-09-13T13:38:36;6.70;;;3.73;;
10641;SDS011;5369;49.586;8.646;2022-09-13T13:41:04;4.07;;;3.70;;
10641;SDS011;5369;49.586;8.646;2022-09-13T13:43:33;7.80;;;4.47;;
10641;SDS011;5369;49.586;8.646;2022-09-13T13:48:36;5.17;;;4.40;;
10641;SDS011;5369;49.586;8.646;2022-09-13T13:51:16;6.40;;;3.90;;
10641;SDS011;5369;49.586;8.646;2022-09-13T13:53:53;7.10;;;4.63;;
10641;SDS011;5369;49.586;8.646;2022-09-13T13:56:21;4.90;;;4.50;;
10641;SDS011;5369;49.586;8.646;2022-09-13T14:01:22;4.50;;;4.10;;
10641;SDS011;5369;49.586;8.646;2022-09-13T14:03:53;5.23;;;4.63;;
10641;SDS011;5369;49.586;8.646;2022-09-13T14:06:32;5.17;;;4.67;;
10641;SDS011;5369;49.586;8.646;2022-09-13T14:09:08;9.87;;;4.47;;
10641;SDS011;5369;49.586;8.646;2022-09-13T14:24:34;5.80;;;4.37;;
10641;SDS011;5369;49.586;8.646;2022-09-13T14:27:01;7.17;;;4.37;;
10641;SDS011;5369;49.586;8.646;2022-09-13T14:29:27;4.90;;;4.40;;
10641;SDS011;5369;49.586;8.646;2022-09-13T14:32:02;5.93;;;4.93;;
10641;SDS011;5369;49.586;8.646;2022-09-13T14:34:30;5.03;;;4.63;;
10641;SDS011;5369;49.586;8.646;2022-09-13T14:36:58;5.03;;;4.57;;
10641;SDS011;5369;49.586;8.646;2022-09-13T14:39:25;5.40;;;4.90;;
10641;SDS011;5369;49.586;8.646;2022-09-13T14:42:02;7.40;;;4.87;;
10641;SDS011;5369;49.586;8.646;2022-09-13T14:44:32;4.90;;;4.50;;
10641;SDS011;5369;49.586;8.646;2022-09-13T14:47:11;5.30;;;4.80;;
10641;SDS011;5369;49.586;8.646;2022-09-13T14:49:40;6.03;;;4.57;;
10641;SDS011;5369;49.586;8.646;2022-09-13T14:52:09;6.00;;;4.87;;
10641;SDS011;5369;49.586;8.646;2022-09-13T14:54:43;5.53;;;4.97;;
10641;SDS011;5369;49.586;8.646;2022-09-13T14:57:47;7.23;;;5.10;;
10641;SDS011;5369;49.586;8.646;2022-09-13T15:00:06;6.27;;;4.97;;
10641;SDS011;5369;49.586;8.646;2022-09-13T15:02:42;5.10;;;4.60;;
10641;SDS011;5369;49.586;8.646;2022-09-13T15:05:16;5.57;;;4.20;;
10641;SDS011;5369;49.586;8.646;2022-09-13T15:07:43;5.07;;;4.57;;
10641;SDS011;5369;49.586;8.646;2022-09-13T15:13:01;4.20;;;3.80;;
10641;SDS011;5369;49.586;8.646;2022-09-13T15:18:02;5.43;;;4.60;;
10641;SDS011;5369;49.586;8.646;2022-09-13T15:20:45;4.50;;;4.10;;
10641;SDS011;5369;49.586;8.646;2022-09-13T15:23:16;5.33;;;3.67;;
10641;SDS011;5369;49.586;8.646;2022-09-13T15:25:46;4.77;;;4.00;;
10641;SDS011;5369;49.586;8.646;2022-09-13T15:28:21;7.93;;;3.57;;
10641;SDS011;5369;49.586;8.646;2022-09-13T15:30:48;4.83;;;3.50;;
10641;SDS011;5369;49.586;8.646;2022-09-13T15:33:22;4.07;;;3.53;;
10641;SDS011;5369;49.586;8.646;2022-09-13T15:35:49;3.67;;;3.37;;
10641;SDS011;5369;49.586;8.646;2022-09-13T15:38:20;4.30;;;3.50;;
10641;SDS011;5369;49.586;8.646;2022-09-13T15:40:58;7.07;;;3.87;;
10641;SDS011;5369;49.586;8.646;2022-09-13T15:43:25;3.90;;;3.40;;
10641;SDS011;5369;49.586;8.646;2022-09-13T15:45:51;4.47;;;3.13;;
10641;SDS011;5369;49.586;8.646;2022-09-13T15:48:35;4.90;;;3.23;;
10641;SDS011;5369;49.586;8.646;2022-09-13T15:53:34;3.90;;;3.20;;
10641;SDS011;5369;49.586;8.646;2022-09-13T15:56:01;5.47;;;3.60;;
10641;SDS011;5369;49.586;8.646;2022-09-13T15:58:28;3.50;;;3.20;;
10641;SDS011;5369;49.586;8.646;2022-09-13T16:00:54;5.20;;;3.47;;
10641;SDS011;5369;49.586;8.646;2022-09-13T16:03:20;4.10;;;3.60;;
10641;SDS011;5369;49.586;8.646;2022-09-13T16:05:46;4.63;;;3.50;;
10641;SDS011;5369;49.586;8.646;2022-09-13T16:08:13;5.00;;;3.90;;
10641;SDS011;5369;49.586;8.646;2022-09-13T16:10:39;5.43;;;3.80;;
10641;SDS011;5369;49.586;8.646;2022-09-13T16:13:05;3.30;;;3.00;;
10641;SDS011;5369;49.586;8.646;2022-09-13T16:15:31;6.70;;;3.20;;
10641;SDS011;5369;49.586;8.646;2022-09-13T16:18:00;3.40;;;3.10;;
10641;SDS011;5369;49.586;8.646;2022-09-13T16:20:26;3.57;;;3.27;;
10641;SDS011;5369;49.586;8.646;2022-09-13T16:22:53;5.57;;;4.00;;
10641;SDS011;5369;49.586;8.646;2022-09-13T16:25:19;6.20;;;3.73;;
10641;SDS011;5369;49.586;8.646;2022-09-13T16:27:46;6.17;;;3.90;;
10641;SDS011;5369;49.586;8.646;2022-09-13T16:30:13;7.13;;;3.70;;
10641;SDS011;5369;49.586;8.646;2022-09-13T16:32:40;5.87;;;4.00;;
10641;SDS011;5369;49.586;8.646;2022-09-13T16:35:07;5.57;;;3.60;;
10641;SDS011;5369;49.586;8.646;2022-09-13T16:37:33;4.83;;;3.90;;
10641;SDS011;5369;49.586;8.646;2022-09-13T16:40:00;4.87;;;3.80;;
10641;SDS011;5369;49.586;8.646;2022-09-13T16:42:31;6.37;;;3.53;;
10641;SDS011;5369;49.586;8.646;2022-09-13T16:45:01;5.47;;;3.20;;
10641;SDS011;5369;49.586;8.646;2022-09-13T16:47:32;4.47;;;3.50;;
10641;SDS011;5369;49.586;8.646;2022-09-13T16:49:58;4.83;;;4.07;;
10641;SDS011;5369;49.586;8.646;2022-09-13T16:52:25;4.67;;;3.90;;
10641;SDS011;5369;49.586;8.646;2022-09-13T16:54:51;5.53;;;4.30;;
10641;SDS011;5369;49.586;8.646;2022-09-13T16:57:17;4.63;;;4.13;;
10641;SDS011;5369;49.586;8.646;2022-09-13T16:59:44;4.70;;;3.83;;
10641;SDS011;5369;49.586;8.646;2022-09-13T17:02:11;5.83;;;4.00;;
10641;SDS011;5369;49.586;8.646;2022-09-13T17:04:37;21.13;;;5.17;;
10641;SDS011;5369;49.586;8.646;2022-09-13T17:07:04;7.07;;;3.63;;
10641;SDS011;5369;49.586;8.646;2022-09-13T17:09:34;7.03;;;3.43;;
10641;SDS011;5369;49.586;8.646;2022-09-13T17:12:11;4.53;;;3.37;;
10641;SDS011;5369;49.586;8.646;2022-09-13T17:14:39;4.50;;;3.40;;
10641;SDS011;5369;49.586;8.646;2022-09-13T17:17:07;3.83;;;3.17;;
10641;SDS011;5369;49.586;8.646;2022-09-13T17:19:33;3.63;;;3.33;;
10641;SDS011;5369;49.586;8.646;2022-09-13T17:22:00;3.57;;;3.27;;
10641;SDS011;5369;49.586;8.646;2022-09-13T17:24:27;3.30;;;2.90;;
10641;SDS011;5369;49.586;8.646;2022-09-13T17:26:55;3.70;;;2.97;;
10641;SDS011;5369;49.586;8.646;2022-09-13T17:29:21;3.67;;;3.20;;
10641;SDS011;5369;49.586;8.646;2022-09-13T17:31:50;6.57;;;3.47;;
10641;SDS011;5369;49.586;8.646;2022-09-13T17:34:16;3.73;;;3.40;;
10641;SDS011;5369;49.586;8.646;2022-09-13T17:36:43;3.30;;;3.00;;
10641;SDS011;5369;49.586;8.646;2022-09-13T17:39:09;3.50;;;3.20;;
10641;SDS011;5369;49.586;8.646;2022-09-13T17:41:36;4.20;;;3.90;;
10641;SDS011;5369;49.586;8.646;2022-09-13T17:44:02;5.70;;;4.40;;
10641;SDS011;5369;49.586;8.646;2022-09-13T17:46:28;4.53;;;3.80;;
10641;SDS011;5369;49.586;8.646;2022-09-13T17:48:56;4.63;;;4.17;;
10641;SDS011;5369;49.586;8.646;2022-09-13T17:51:26;4.80;;;4.07;;
10641;SDS011;5369;49.586;8.646;2022-09-13T17:53:54;6.07;;;4.20;;
10641;SDS011;5369;49.586;8.646;2022-09-13T17:56:21;8.10;;;4.70;;
10641;SDS011;5369;49.586;8.646;2022-09-13T17:58:49;5.00;;;4.50;;
10641;SDS011;5369;49.586;8.646;2022-09-13T18:01:16;5.17;;;3.90;;
10641;SDS011;5369;49.586;8.646;2022-09-13T18:03:42;8.33;;;4.20;;
10641;SDS011;5369;49.586;8.646;2022-09-13T18:06:08;5.87;;;3.60;;